Time;durP1;ratioP1;P1;durP2;ratioP2;P2;SDS_P1;SDS_P2;PMS_P1;PMS_P2;Temp;Humidity;BMP_temperature;BMP_pressure;BME280_temperature;BME280_humidity;BME280_pressure;Samples;Min_cycle;Max_cycle;Signal;HPM_P1;HPM_P2
2023/09/29 00:01:57;;;;;;;4.47;1.38;;;;;;;;;;5070818;28;20048;-43
2023/09/29 00:04:23;;;;;;;3.97;1.35;;;;;;;;;;5071749;28;20029;-43
2023/09/29 00:06:48;;;;;;;10.23;1.88;;;20.30;99.90;;;;;;5067695;28;20024;-39
2023/09/29 00:09:16;;;;;;;7.85;1.70;;;;;;;;;;5070683;28;20034;-41
2023/09/29 00:11:41;;;;;;;8.48;1.58;;;20.50;99.90;;;;;;5072334;28;20097;-43
2023/09/29 00:14:07;;;;;;;8.25;2.28;;;20.50;99.90;;;;;;5072318;28;20066;-41
2023/09/29 00:16:33;;;;;;;6.85;1.45;;;;;;;;;;5072215;28;20056;-45
2023/09/29 00:18:59;;;;;;;6.85;1.33;;;;;;;;;;5072283;28;20040;-44
2023/09/29 00:21:25;;;;;;;10.18;1.90;;;;;;;;;;5072078;28;20032;-40
2023/09/29 00:23:50;;;;;;;6.15;1.60;;;19.50;99.90;;;;;;5072106;28;20444;-45
2023/09/29 00:26:17;;;;;;;12.10;2.33;;;;;;;;;;5072032;28;20025;-42
2023/09/29 00:28:44;;;;;;;9.02;2.15;;;19.60;99.90;;;;;;5072034;28;20017;-43
2023/09/29 00:31:10;;;;;;;4.63;2.03;;;;;;;;;;5071905;28;20104;-61
2023/09/29 00:33:36;;;;;;;4.53;1.23;;;;;;;;;;5071835;28;20047;-49
2023/09/29 00:36:01;;;;;;;10.38;2.75;;;18.90;99.90;;;;;;5071942;28;20408;-59
2023/09/29 00:38:27;;;;;;;7.20;1.70;;;19.80;99.90;;;;;;5071964;28;20122;-55
2023/09/29 00:40:53;;;;;;;10.95;1.90;;;20.90;99.90;;;;;;5071810;28;20024;-54
2023/09/29 00:43:19;;;;;;;8.05;1.75;;;;;;;;;;5071816;28;20059;-52
2023/09/29 00:45:48;;;;;;;12.88;2.17;;;19.00;99.90;;;;;;5070353;28;20094;-55
2023/09/29 00:48:14;;;;;;;4.03;1.60;;;18.80;99.90;;;;;;5072064;28;20036;-56
2023/09/29 00:50:40;;;;;;;7.00;1.80;;;;;;;;;;5071596;28;20032;-56
2023/09/29 00:53:11;;;;;;;5.97;1.67;;;19.00;99.90;;;;;;5071678;28;20029;-42
2023/09/29 00:55:37;;;;;;;6.57;1.80;;;19.70;99.90;;;;;;5071438;28;20028;-53
2023/09/29 00:58:06;;;;;;;10.30;2.20;;;20.50;99.90;;;;;;5071879;28;20059;-57
2023/09/29 01:00:32;;;;;;;6.50;1.85;;;18.90;99.90;;;;;;5071260;28;20032;-54
2023/09/29 01:03:18;;;;;;;11.38;1.77;;;19.30;99.90;;;;;;5071348;28;20029;-54
2023/09/29 01:05:46;;;;;;;3.65;1.50;;;18.40;99.90;;;;;;5071439;28;20021;-52
2023/09/29 01:08:16;;;;;;;5.20;1.60;;;18.90;99.90;;;;;;5071199;28;20028;-48
2023/09/29 01:10:44;;;;;;;3.97;1.73;;;18.60;99.90;;;;;;5071365;28;20023;-53
2023/09/29 01:13:10;;;;;;;10.35;1.88;;;20.20;99.90;;;;;;5071166;28;20023;-45
2023/09/29 01:15:36;;;;;;;6.93;1.75;;;18.90;99.90;;;;;;5071138;28;20032;-55
2023/09/29 01:18:02;;;;;;;6.47;1.75;;;;;;;;;;5071148;28;20027;-58
2023/09/29 01:20:32;;;;;;;6.40;1.70;;;18.90;99.90;;;;;;5070958;28;20492;-54
2023/09/29 01:23:00;;;;;;;9.55;1.77;;;19.50;99.90;;;;;;5069524;28;20136;-58
2023/09/29 01:25:26;;;;;;;5.72;1.70;;;19.40;99.90;;;;;;5070933;28;20028;-50
2023/09/29 01:27:52;;;;;;;8.27;1.88;;;19.60;99.90;;;;;;5070623;28;20086;-46
2023/09/29 01:30:18;;;;;;;7.47;1.90;;;;;;;;;;5070481;28;20067;-41
2023/09/29 01:32:52;;;;;;;4.53;1.67;;;18.70;99.90;;;;;;5070766;28;20086;-53
2023/09/29 01:35:23;;;;;;;8.27;1.92;;;19.00;99.90;;;;;;5070760;28;20047;-42
2023/09/29 01:37:53;;;;;;;7.50;1.92;;;19.00;99.90;;;;;;5070661;28;20031;-51
2023/09/29 01:40:21;;;;;;;10.07;2.03;;;19.50;99.90;;;;;;5070531;28;20037;-39
2023/09/29 01:42:47;;;;;;;6.88;1.60;;;20.80;99.90;;;;;;5070500;28;20453;-46
2023/09/29 01:45:14;;;;;;;7.32;2.17;;;19.30;99.90;;;;;;5070308;28;20071;-41
2023/09/29 01:47:41;;;;;;;11.55;2.10;;;18.70;99.90;;;;;;5070307;28;20013;-40
2023/09/29 01:50:08;;;;;;;4.35;1.67;;;18.90;99.90;;;;;;5070632;28;20019;-44
2023/09/29 01:52:34;;;;;;;8.13;2.30;;;;;;;;;;5070436;28;20590;-42
2023/09/29 01:55:03;;;;;;;6.20;1.60;;;19.20;99.90;;;;;;5070607;28;20054;-43
2023/09/29 01:57:29;;;;;;;6.00;1.75;;;19.40;99.90;;;;;;5070222;28;20036;-40
2023/09/29 01:59:54;;;;;;;6.20;1.50;;;19.20;99.90;;;;;;5070026;28;20032;-39
2023/09/29 02:02:20;;;;;;;8.10;1.60;;;19.00;99.90;;;;;;5070269;28;20045;-39
2023/09/29 02:04:49;;;;;;;4.70;1.58;;;;;;;;;;5070455;28;20021;-43
2023/09/29 02:07:15;;;;;;;3.42;1.23;;;;;;;;;;5070452;28;20017;-40
2023/09/29 02:09:44;;;;;;;9.55;2.00;;;;;;;;;;5070248;28;20516;-39
2023/09/29 02:12:10;;;;;;;10.95;1.80;;;;;;;;;;5070255;28;20091;-40
2023/09/29 02:14:36;;;;;;;4.55;1.83;;;18.90;99.90;;;;;;5069942;28;20063;-39
2023/09/29 02:17:04;;;;;;;7.95;1.85;;;;;;;;;;5070187;28;20141;-39
2023/09/29 02:19:36;;;;;;;7.15;1.95;;;18.60;99.90;;;;;;5070097;28;20024;-39
2023/09/29 02:22:03;;;;;;;9.55;1.70;;;19.60;99.90;;;;;;5070074;28;20020;-39
2023/09/29 02:24:29;;;;;;;4.57;1.63;;;;;;;;;;5070122;28;20025;-44
2023/09/29 02:26:55;;;;;;;5.30;1.70;;;;;;;;;;5070000;28;20044;-40
2023/09/29 02:29:21;;;;;;;5.90;1.80;;;19.60;99.90;;;;;;5069955;28;20028;-44
2023/09/29 02:31:46;;;;;;;8.80;1.75;;;19.50;99.90;;;;;;5069629;28;20024;-47
2023/09/29 02:34:15;;;;;;;5.95;1.83;;;20.40;99.90;;;;;;5070173;28;20438;-39
2023/09/29 02:36:40;;;;;;;7.00;1.70;;;20.30;99.90;;;;;;5070123;28;20465;-43
2023/09/29 02:39:08;;;;;;;4.10;1.60;;;20.10;99.90;;;;;;5070023;28;20059;-40
2023/09/29 02:41:35;;;;;;;6.47;2.10;;;;;;;;;;5070092;28;20029;-39
2023/09/29 02:44:01;;;;;;;8.25;1.65;;;18.40;99.90;;;;;;5069087;28;20273;-40
2023/09/29 02:46:27;;;;;;;3.83;1.60;;;20.30;99.90;;;;;;5069747;28;20107;-39
2023/09/29 02:48:52;;;;;;;6.45;1.73;;;19.00;99.90;;;;;;5068776;28;20116;-39
2023/09/29 02:51:19;;;;;;;6.47;1.80;;;17.70;99.90;;;;;;5069942;28;20472;-39
2023/09/29 02:53:48;;;;;;;8.00;1.92;;;19.40;99.90;;;;;;5069904;28;20029;-39
2023/09/29 02:56:16;;;;;;;5.82;1.48;;;18.00;99.90;;;;;;5069970;28;20028;-40
2023/09/29 02:58:43;;;;;;;6.28;1.70;;;19.40;99.90;;;;;;5069851;28;20033;-39
2023/09/29 03:01:12;;;;;;;7.90;1.98;;;;;;;;;;5069448;28;20123;-42
2023/09/29 03:03:43;;;;;;;7.32;1.80;;;;;;;;;;5069889;28;20025;-39
2023/09/29 03:06:08;;;;;;;4.57;0.93;;;;;;;;;;5069852;28;20020;-39
2023/09/29 03:08:35;;;;;;;10.98;1.65;;;;;;;;;;5071408;28;20072;-48
2023/09/29 03:11:03;;;;;;;6.18;1.52;;;18.20;99.90;;;;;;5073325;28;20036;-41
2023/09/29 03:13:29;;;;;;;4.40;1.70;;;;;;;;;;5073743;28;20031;-39
2023/09/29 03:15:55;;;;;;;5.13;1.67;;;20.20;99.90;;;;;;5073397;28;20293;-39
2023/09/29 03:18:21;;;;;;;3.75;1.38;;;;;;;;;;5073450;28;20472;-39
2023/09/29 03:20:46;;;;;;;4.10;1.10;;;19.90;99.90;;;;;;5073565;28;20016;-39
2023/09/29 03:23:12;;;;;;;4.13;0.90;;;;;;;;;;5073268;28;20060;-40
2023/09/29 03:25:38;;;;;;;6.65;1.40;;;;;;;;;;5073395;28;20025;-39
2023/09/29 03:28:04;;;;;;;3.15;1.08;;;;;;;;;;5073243;28;20552;-44
2023/09/29 03:30:31;;;;;;;4.38;0.77;;;18.90;99.90;;;;;;5073176;28;20035;-40
2023/09/29 03:32:58;;;;;;;4.32;0.98;;;;;;;;;;5073340;28;20044;-39
2023/09/29 03:35:23;;;;;;;4.68;1.02;;;19.00;99.90;;;;;;5073147;28;20098;-39
2023/09/29 03:37:50;;;;;;;3.85;1.10;;;20.10;99.90;;;;;;5073323;28;20021;-40
2023/09/29 03:40:18;;;;;;;2.53;0.82;;;19.20;99.90;;;;;;5071678;28;20036;-39
2023/09/29 03:42:44;;;;;;;3.72;1.10;;;18.00;99.90;;;;;;5073242;28;20029;-37
2023/09/29 03:45:11;;;;;;;4.72;1.10;;;18.20;99.90;;;;;;5072868;28;20385;-38
2023/09/29 03:47:37;;;;;;;6.10;1.27;;;19.30;99.90;;;;;;5072597;28;20025;-39
2023/09/29 03:50:11;;;;;;;8.18;1.13;;;17.80;99.90;;;;;;5072942;28;20048;-43
2023/09/29 03:52:37;;;;;;;0.60;0.40;;;19.40;99.90;;;;;;5072709;28;20100;-39
2023/09/29 03:55:03;;;;;;;6.55;1.08;;;18.90;99.90;;;;;;5072919;28;20056;-39
2023/09/29 03:57:29;;;;;;;1.52;0.60;;;;;;;;;;5072616;28;20036;-39
2023/09/29 03:59:55;;;;;;;6.97;1.15;;;18.60;99.90;;;;;;5072624;28;20817;-39
2023/09/29 04:02:20;;;;;;;16.67;1.52;;;18.30;99.90;;;;;;5072485;28;20052;-39
2023/09/29 04:04:47;;;;;;;3.40;0.90;;;18.90;99.90;;;;;;5072534;28;20032;-41
2023/09/29 04:07:13;;;;;;;3.65;0.85;;;18.40;99.90;;;;;;5072729;28;20013;-39
2023/09/29 04:09:39;;;;;;;3.65;0.68;;;;;;;;;;5072644;28;20024;-39
2023/09/29 04:12:05;;;;;;;2.60;0.90;;;;;;;;;;5072483;28;20016;-40
2023/09/29 04:14:31;;;;;;;2.03;0.60;;;18.90;99.90;;;;;;5072328;28;20073;-40
2023/09/29 04:16:57;;;;;;;3.03;0.68;;;;;;;;;;5072293;28;20100;-41
2023/09/29 04:19:23;;;;;;;4.00;0.60;;;19.40;99.90;;;;;;5072140;28;20107;-40
2023/09/29 04:21:48;;;;;;;6.38;0.90;;;;;;;;;;5072327;28;20493;-39
2023/09/29 04:24:14;;;;;;;1.65;0.50;;;19.00;99.90;;;;;;5072204;28;20032;-38
2023/09/29 04:26:40;;;;;;;2.70;0.63;;;;;;;;;;5072181;28;20021;-39
2023/09/29 04:29:07;;;;;;;3.13;0.60;;;18.20;99.90;;;;;;5072248;28;20032;-39
2023/09/29 04:31:33;;;;;;;5.40;0.70;;;17.80;99.90;;;;;;5071917;28;20029;-44
2023/09/29 04:33:58;;;;;;;2.97;0.63;;;18.80;99.90;;;;;;5071970;28;20047;-39
2023/09/29 04:36:24;;;;;;;2.70;0.70;;;;;;;;;;5071871;28;20043;-40
2023/09/29 04:38:51;;;;;;;4.32;0.70;;;17.90;99.90;;;;;;5071764;28;20615;-39
2023/09/29 04:41:17;;;;;;;5.03;1.13;;;18.50;99.90;;;;;;5072110;28;20074;-42
2023/09/29 04:43:44;;;;;;;5.22;1.02;;;;;;;;;;5071787;28;20036;-42
2023/09/29 04:46:10;;;;;;;1.83;0.68;;;;;;;;;;5071700;28;20025;-55
2023/09/29 04:48:36;;;;;;;3.60;0.60;;;;;;;;;;5071647;28;20130;-47
2023/09/29 04:51:03;;;;;;;2.53;0.60;;;19.90;99.90;;;;;;5071557;28;20024;-49
2023/09/29 04:53:28;;;;;;;1.75;0.70;;;14.80;99.90;;;;;;5071966;28;20318;-50
2023/09/29 04:55:54;;;;;;;2.25;0.80;;;;;;;;;;5071330;28;20480;-44
2023/09/29 04:58:20;;;;;;;1.05;0.60;;;17.80;99.90;;;;;;5071620;28;20027;-60
2023/09/29 05:00:46;;;;;;;0.38;0.38;;;18.70;99.90;;;;;;5071062;28;20041;-42
2023/09/29 05:03:12;;;;;;;1.80;0.40;;;;;;;;;;5071479;28;20507;-55
2023/09/29 05:05:39;;;;;;;0.20;0.20;;;18.50;99.90;;;;;;5071485;28;20036;-53
2023/09/29 05:08:04;;;;;;;0.20;0.20;;;17.60;99.90;;;;;;5071312;28;20035;-61
2023/09/29 05:10:30;;;;;;;0.25;0.25;;;;;;;;;;5071275;28;20028;-52
2023/09/29 05:12:56;;;;;;;0.30;0.20;;;18.20;99.90;;;;;;5071040;28;20032;-61
2023/09/29 05:15:22;;;;;;;0.47;0.30;;;;;;;;;;5071273;28;20029;-52
2023/09/29 05:17:48;;;;;;;0.40;0.32;;;17.90;99.90;;;;;;5071107;28;20024;-60
2023/09/29 05:20:14;;;;;;;0.30;0.30;;;;;;;;;;5071088;28;20028;-57
2023/09/29 05:22:39;;;;;;;0.30;0.30;;;17.20;99.90;;;;;;5071284;28;20020;-55
2023/09/29 05:25:06;;;;;;;0.35;0.30;;;18.80;99.90;;;;;;5071142;28;20048;-49
2023/09/29 05:27:32;;;;;;;1.42;0.40;;;;;;;;;;5071174;28;20025;-48
2023/09/29 05:29:58;;;;;;;0.20;0.20;;;;;;;;;;5070603;28;20043;-58
2023/09/29 05:32:24;;;;;;;0.35;0.28;;;18.00;99.90;;;;;;5070305;28;20024;-52
2023/09/29 05:34:50;;;;;;;0.57;0.30;;;18.20;99.90;;;;;;5070711;28;20070;-58
2023/09/29 05:37:17;;;;;;;0.28;0.28;;;;;;;;;;5070781;28;20044;-56
2023/09/29 05:39:42;;;;;;;0.28;0.28;;;17.20;99.90;;;;;;5070577;28;20025;-61
2023/09/29 05:42:08;;;;;;;2.08;0.43;;;17.80;99.90;;;;;;5067276;28;20027;-59
2023/09/29 05:44:33;;;;;;;0.20;0.20;;;18.10;99.90;;;;;;5068569;28;20477;-56
2023/09/29 05:47:00;;;;;;;0.20;0.20;;;;;;;;;;5059312;28;20081;-39
2023/09/29 05:49:25;;;;;;;0.70;0.25;;;18.10;99.90;;;;;;5055212;28;20029;-55
2023/09/29 05:51:51;;;;;;;0.30;0.30;;;18.30;99.90;;;;;;5063474;28;20487;-57
2023/09/29 05:54:16;;;;;;;1.02;0.20;;;18.40;99.90;;;;;;5065079;28;20035;-55
2023/09/29 05:56:42;;;;;;;0.45;0.40;;;15.40;99.90;;;;;;5068894;28;20024;-57
2023/09/29 05:59:09;;;;;;;0.25;0.25;;;;;;;;;;5064383;28;20431;-46
2023/09/29 06:01:34;;;;;;;0.85;0.40;;;18.50;99.90;;;;;;5067852;28;20045;-59
2023/09/29 06:04:00;;;;;;;0.70;0.40;;;;;;;;;;5068594;28;20044;-57
2023/09/29 06:06:26;;;;;;;0.30;0.30;;;19.00;99.90;;;;;;5050507;28;20025;-48
2023/09/29 06:08:52;;;;;;;0.20;0.20;;;;;;;;;;5051648;28;20056;-46
2023/09/29 06:11:18;;;;;;;0.60;0.50;;;;;;;;;;5054380;28;20021;-48
2023/09/29 06:13:43;;;;;;;0.63;0.47;;;16.90;99.90;;;;;;5054146;28;20021;-54
2023/09/29 06:16:09;;;;;;;0.75;0.35;;;18.90;99.90;;;;;;5058592;28;20477;-59
2023/09/29 06:18:35;;;;;;;0.30;0.30;;;;;;;;;;5055079;28;20032;-50
2023/09/29 06:21:01;;;;;;;0.22;0.22;;;12.50;99.90;;;;;;5060097;28;20020;-57
2023/09/29 06:23:27;;;;;;;0.57;0.30;;;19.10;99.90;;;;;;5054827;28;20469;-52
2023/09/29 06:25:59;;;;;;;0.63;0.38;;;16.80;99.90;;;;;;5058388;28;20021;-58
2023/09/29 06:28:25;;;;;;;0.73;0.50;;;18.80;99.90;;;;;;5062702;28;20385;-54
2023/09/29 06:30:57;;;;;;;0.30;0.30;;;17.80;99.90;;;;;;5062367;28;20020;-55
2023/09/29 06:33:25;;;;;;;1.02;0.50;;;16.80;99.90;;;;;;5069922;28;20016;-56
2023/09/29 06:35:52;;;;;;;0.40;0.40;;;16.80;99.90;;;;;;5069883;28;20036;-57
2023/09/29 06:38:18;;;;;;;0.60;0.50;;;;;;;;;;5070241;28;20055;-55
2023/09/29 06:40:44;;;;;;;0.50;0.40;;;17.50;99.90;;;;;;5068277;28;20497;-40
2023/09/29 06:43:10;;;;;;;0.93;0.35;;;18.50;99.90;;;;;;5068668;28;20071;-40
2023/09/29 06:45:36;;;;;;;2.03;0.47;;;;;;;;;;5071468;28;20028;-40
2023/09/29 06:48:03;;;;;;;2.13;0.70;;;17.60;99.90;;;;;;5070030;28;20500;-54
2023/09/29 06:50:29;;;;;;;1.23;0.70;;;;;;;;;;5066327;28;20067;-59
2023/09/29 06:52:54;;;;;;;0.70;0.50;;;12.90;99.90;;;;;;5055622;28;20055;-56
2023/09/29 06:55:21;;;;;;;0.77;0.50;;;;;;;;;;5056364;28;20470;-55
2023/09/29 06:57:47;;;;;;;1.13;0.60;;;17.10;99.90;;;;;;5056114;28;20025;-58
2023/09/29 07:00:13;;;;;;;0.80;0.65;;;12.70;99.90;;;;;;5055484;28;20121;-58
2023/09/29 07:02:39;;;;;;;0.70;0.50;;;;;;;;;;5055576;28;20137;-60
2023/09/29 07:05:05;;;;;;;0.70;0.45;;;17.10;99.90;;;;;;5064026;28;20041;-52
2023/09/29 07:07:31;;;;;;;1.20;0.75;;;;;;;;;;5065662;28;20412;-53
2023/09/29 07:09:57;;;;;;;1.20;0.63;;;;;;;;;;5061750;28;20021;-51
2023/09/29 07:12:24;;;;;;;1.88;0.80;;;18.80;99.90;;;;;;5067181;28;20017;-60
2023/09/29 07:14:51;;;;;;;3.45;1.23;;;;;;;;;;5061245;28;20474;-43
2023/09/29 07:17:17;;;;;;;1.20;0.60;;;16.80;99.90;;;;;;5065901;28;20052;-61
2023/09/29 07:19:43;;;;;;;1.17;0.88;;;17.40;99.90;;;;;;5068500;28;20056;-60
2023/09/29 07:22:08;;;;;;;0.80;0.60;;;18.90;99.90;;;;;;5064641;28;20040;-55
2023/09/29 07:24:34;;;;;;;1.25;0.63;;;16.90;99.90;;;;;;5062463;28;20032;-53
2023/09/29 07:27:00;;;;;;;1.52;0.70;;;;;;;;;;5058419;28;20037;-53
2023/09/29 07:29:25;;;;;;;1.50;0.63;;;18.40;99.90;;;;;;5063074;28;20020;-54
2023/09/29 07:31:51;;;;;;;1.02;0.60;;;;;;;;;;5069035;28;20392;-58
2023/09/29 07:34:18;;;;;;;1.30;0.68;;;;;;;;;;5073144;28;20081;-57
2023/09/29 07:36:45;;;;;;;1.42;0.60;;;19.30;99.90;;;;;;5073230;28;20032;-62
2023/09/29 07:39:15;;;;;;;2.20;0.90;;;18.70;99.90;;;;;;5067119;28;20524;-57
2023/09/29 07:41:41;;;;;;;1.13;0.70;;;18.60;99.90;;;;;;5062884;28;20032;-55
2023/09/29 07:44:08;;;;;;;2.47;0.90;;;;;;;;;;5058778;28;20033;-52
2023/09/29 07:46:35;;;;;;;1.20;0.63;;;17.30;99.90;;;;;;5065960;28;20021;-49
2023/09/29 07:49:01;;;;;;;3.70;0.60;;;18.20;99.90;;;;;;5063350;28;20021;-55
2023/09/29 07:51:27;;;;;;;2.55;0.60;;;;;;;;;;5062819;28;20025;-58
2023/09/29 07:53:52;;;;;;;1.38;0.73;;;17.60;99.90;;;;;;5071894;28;20025;-63
2023/09/29 07:56:18;;;;;;;1.27;0.70;;;18.90;99.90;;;;;;5072903;28;20085;-52
2023/09/29 07:58:44;;;;;;;2.75;0.60;;;18.20;99.90;;;;;;5072406;28;20024;-58
2023/09/29 08:01:10;;;;;;;1.40;0.50;;;17.10;99.90;;;;;;5068481;28;20037;-44
2023/09/29 08:03:36;;;;;;;2.13;0.70;;;18.80;99.90;;;;;;5056824;28;20413;-50
2023/09/29 08:06:02;;;;;;;1.65;0.60;;;;;;;;;;5060839;28;20028;-56
2023/09/29 08:08:28;;;;;;;0.57;0.55;;;17.30;99.90;;;;;;5057253;28;20039;-46
2023/09/29 08:10:54;;;;;;;1.92;0.50;;;16.90;99.90;;;;;;5061432;28;20095;-39
2023/09/29 08:13:20;;;;;;;0.95;0.60;;;13.40;99.90;;;;;;5057005;28;20043;-54
2023/09/29 08:15:46;;;;;;;1.83;0.57;;;16.80;99.90;;;;;;5059502;28;20027;-57
2023/09/29 08:18:12;;;;;;;1.88;0.90;;;13.40;99.90;;;;;;5058412;28;20030;-58
2023/09/29 08:20:38;;;;;;;1.45;0.60;;;18.90;99.90;;;;;;5057812;28;20090;-59
2023/09/29 08:23:03;;;;;;;0.98;0.52;;;18.20;99.90;;;;;;5058406;28;20055;-49
2023/09/29 08:25:31;;;;;;;1.50;0.50;;;17.50;99.90;;;;;;5055881;28;20355;-58
2023/09/29 08:27:57;;;;;;;1.15;0.50;;;;;;;;;;5060695;28;20021;-57
2023/09/29 08:30:23;;;;;;;1.45;0.60;;;;;;;;;;5059997;28;20056;-52
2023/09/29 08:32:49;;;;;;;2.20;0.75;;;17.50;99.90;;;;;;5071787;28;20465;-62
2023/09/29 08:35:15;;;;;;;1.13;0.50;;;17.70;99.90;;;;;;5071313;28;20040;-58
2023/09/29 08:37:42;;;;;;;1.00;0.47;;;17.30;99.90;;;;;;5071928;28;20075;-56
2023/09/29 08:40:09;;;;;;;0.50;0.50;;;17.50;99.90;;;;;;5072092;28;20165;-48
2023/09/29 08:42:36;;;;;;;2.13;0.60;;;17.90;99.90;;;;;;5071889;28;20021;-56
2023/09/29 08:45:05;;;;;;;1.08;0.65;;;16.80;99.90;;;;;;5064241;28;20408;-48
2023/09/29 08:47:35;;;;;;;1.40;0.73;;;16.80;99.90;;;;;;5065973;28;20048;-56
2023/09/29 08:50:04;;;;;;;0.88;0.60;;;16.90;99.90;;;;;;5056210;28;20090;-53
2023/09/29 08:52:32;;;;;;;2.17;0.68;;;17.90;99.90;;;;;;5054050;28;20017;-48
2023/09/29 08:54:59;;;;;;;2.47;0.50;;;17.00;99.90;;;;;;5062849;28;20169;-58
2023/09/29 08:57:25;;;;;;;0.57;0.50;;;16.80;99.90;;;;;;5067560;28;20364;-57
2023/09/29 08:59:53;;;;;;;1.83;0.70;;;17.30;99.90;;;;;;5066072;28;20035;-54
2023/09/29 09:02:19;;;;;;;2.50;0.75;;;19.20;99.90;;;;;;5069400;28;20102;-48
2023/09/29 09:04:44;;;;;;;1.92;0.80;;;18.20;99.90;;;;;;5069141;28;20485;-55
2023/09/29 09:07:11;;;;;;;0.77;0.47;;;17.60;99.90;;;;;;5068800;28;20020;-59
2023/09/29 09:09:37;;;;;;;1.05;0.60;;;19.10;99.90;;;;;;5071317;28;20035;-47
2023/09/29 09:12:04;;;;;;;1.33;0.70;;;19.00;99.90;;;;;;5059326;28;20029;-48
2023/09/29 09:14:40;;;;;;;2.30;0.60;;;20.20;99.90;;;;;;5062347;28;20055;-57
2023/09/29 09:17:07;;;;;;;1.08;0.60;;;;;;;;;;5060047;28;20052;-55
2023/09/29 09:19:50;;;;;;;0.95;0.50;;;22.10;99.90;;;;;;5062380;28;20385;-58
2023/09/29 09:22:22;;;;;;;2.25;0.88;;;21.60;99.90;;;;;;5059375;28;20099;-49
2023/09/29 09:24:48;;;;;;;1.48;0.75;;;21.00;99.90;;;;;;5063370;28;20493;-50
2023/09/29 09:27:14;;;;;;;1.40;0.57;;;;;;;;;;5059685;28;20017;-40
2023/09/29 09:29:41;;;;;;;4.53;0.75;;;24.20;99.90;;;;;;5059615;28;20131;-54
2023/09/29 09:32:07;;;;;;;2.13;0.80;;;22.40;99.90;;;;;;5069433;28;20021;-56
2023/09/29 09:34:36;;;;;;;3.50;0.80;;;23.00;99.90;;;;;;5068373;28;20040;-52
2023/09/29 09:37:02;;;;;;;1.92;0.80;;;20.50;99.90;;;;;;5070604;28;20035;-56
2023/09/29 09:39:29;;;;;;;3.38;1.13;;;23.60;99.90;;;;;;5070796;28;20039;-41
2023/09/29 09:41:59;;;;;;;2.08;0.65;;;24.00;99.90;;;;;;5070676;28;20024;-55
2023/09/29 09:44:28;;;;;;;3.22;0.95;;;23.80;99.90;;;;;;5070550;28;20044;-58
2023/09/29 09:47:00;;;;;;;2.20;0.85;;;24.40;99.90;;;;;;5070489;28;20028;-57
2023/09/29 09:49:42;;;;;;;1.40;0.70;;;23.80;99.90;;;;;;5070577;28;20374;-57
2023/09/29 09:52:15;;;;;;;1.95;0.80;;;18.80;99.90;;;;;;5070449;28;20023;-54
2023/09/29 09:54:48;;;;;;;2.38;0.77;;;23.20;99.90;;;;;;5070378;28;20028;-55
2023/09/29 09:57:29;;;;;;;3.22;1.08;;;24.30;99.90;;;;;;5070223;28;20060;-52
2023/09/29 09:59:54;;;;;;;2.70;1.13;;;23.60;99.90;;;;;;5070597;28;20039;-54
2023/09/29 10:02:22;;;;;;;3.17;1.20;;;24.20;99.90;;;;;;5070274;28;20053;-53
2023/09/29 10:04:49;;;;;;;3.70;0.93;;;24.50;99.90;;;;;;5070151;28;20109;-49
2023/09/29 10:07:15;;;;;;;1.60;0.70;;;23.70;99.90;;;;;;5070369;28;20036;-52
2023/09/29 10:09:43;;;;;;;3.17;0.88;;;24.10;99.90;;;;;;5070148;28;20016;-58
2023/09/29 10:12:09;;;;;;;1.80;0.68;;;;;;;;;;5070360;28;20032;-53
2023/09/29 10:14:42;;;;;;;3.05;0.70;;;24.40;99.90;;;;;;5070389;28;20384;-57
2023/09/29 10:17:12;;;;;;;2.97;1.00;;;;;;;;;;5070073;28;20063;-56
2023/09/29 10:19:38;;;;;;;2.05;0.90;;;23.20;99.90;;;;;;5070160;28;20354;-56
2023/09/29 10:22:06;;;;;;;2.83;0.98;;;19.50;99.90;;;;;;5070216;28;20134;-54
2023/09/29 10:24:33;;;;;;;2.10;0.85;;;;;;;;;;5070270;28;20043;-53
2023/09/29 10:27:03;;;;;;;1.60;0.63;;;23.60;99.90;;;;;;5070313;28;20055;-53
2023/09/29 10:29:30;;;;;;;2.85;0.80;;;22.70;99.90;;;;;;5070197;28;20032;-56
2023/09/29 10:32:16;;;;;;;3.22;0.98;;;24.60;99.90;;;;;;5070041;28;20020;-52
2023/09/29 10:34:42;;;;;;;2.60;1.00;;;25.80;99.90;;;;;;5070059;28;20104;-52
2023/09/29 10:37:10;;;;;;;3.03;1.05;;;;;;;;;;5070111;28;20059;-46
2023/09/29 10:39:36;;;;;;;3.13;1.02;;;24.00;99.90;;;;;;5069944;28;20027;-55
2023/09/29 10:42:12;;;;;;;2.13;0.80;;;24.00;99.90;;;;;;5069792;28;20029;-54
2023/09/29 10:44:56;;;;;;;1.50;0.85;;;24.60;99.90;;;;;;5069889;28;20049;-55
2023/09/29 10:47:35;;;;;;;1.92;0.75;;;23.80;99.90;;;;;;5069856;28;20126;-59
2023/09/29 10:50:05;;;;;;;3.92;1.30;;;24.30;99.90;;;;;;5070034;28;20111;-50
2023/09/29 10:52:31;;;;;;;2.15;0.85;;;22.60;99.90;;;;;;5069608;28;20060;-49
2023/09/29 10:54:59;;;;;;;2.80;0.90;;;;;;;;;;5069996;28;20020;-59
2023/09/29 10:57:28;;;;;;;2.72;0.95;;;24.10;99.90;;;;;;5069702;28;20016;-54
2023/09/29 10:59:59;;;;;;;4.00;0.93;;;24.10;99.90;;;;;;5069925;28;20013;-52
2023/09/29 11:02:32;;;;;;;5.57;1.10;;;26.40;99.90;;;;;;5069651;28;20079;-39
2023/09/29 11:05:05;;;;;;;2.70;1.05;;;25.50;99.90;;;;;;5069801;28;20024;-39
2023/09/29 11:07:48;;;;;;;5.53;1.10;;;24.60;99.90;;;;;;5069760;28;20029;-41
2023/09/29 11:10:14;;;;;;;4.35;1.05;;;24.60;99.90;;;;;;5069805;28;20086;-38
2023/09/29 11:12:45;;;;;;;2.88;1.17;;;;;;;;;;5069637;28;20098;-47
2023/09/29 11:15:12;;;;;;;3.30;0.90;;;27.50;99.90;;;;;;5069686;28;20082;-56
2023/09/29 11:17:48;;;;;;;3.53;1.00;;;26.40;99.90;;;;;;5069635;28;20025;-43
2023/09/29 11:20:16;;;;;;;3.67;0.98;;;25.60;99.90;;;;;;5069884;28;20024;-55
2023/09/29 11:22:49;;;;;;;2.72;1.23;;;25.20;99.90;;;;;;5069501;28;20039;-56
2023/09/29 11:25:17;;;;;;;3.00;1.23;;;25.50;99.90;;;;;;5069824;28;20037;-56
2023/09/29 11:27:52;;;;;;;5.00;1.20;;;25.70;99.90;;;;;;5069577;28;20028;-44
2023/09/29 11:30:24;;;;;;;3.33;0.90;;;26.30;99.90;;;;;;5058857;28;20017;-57
2023/09/29 11:32:53;;;;;;;4.80;0.95;;;25.60;99.90;;;;;;5073208;28;20021;-47
2023/09/29 11:35:18;;;;;;;3.08;1.00;;;25.30;99.90;;;;;;5073088;28;20466;-55
2023/09/29 11:37:45;;;;;;;3.05;0.80;;;;;;;;;;5073245;28;20565;-40
2023/09/29 11:40:12;;;;;;;4.22;1.00;;;26.50;99.90;;;;;;5073069;28;20029;-52
2023/09/29 11:42:39;;;;;;;4.13;0.82;;;27.20;99.90;;;;;;5073003;28;20326;-60
2023/09/29 11:45:08;;;;;;;2.92;1.02;;;26.80;99.90;;;;;;5072978;28;20040;-39
2023/09/29 11:47:35;;;;;;;;;;;26.80;99.90;;;;;;5073196;28;20123;-39
2023/09/29 11:50:02;;;;;;;3.63;1.00;;;;;;;;;;5072960;28;19909;-43
2023/09/29 11:52:27;;;;;;;3.15;1.00;;;26.10;98.80;;;;;;5072937;28;20020;-49
2023/09/29 11:54:53;;;;;;;2.75;1.17;;;;;;;;;;5072889;28;20029;-51
2023/09/29 11:57:20;;;;;;;4.25;1.25;;;26.80;99.20;;;;;;5070740;28;20027;-50
2023/09/29 11:59:46;;;;;;;4.65;1.10;;;;;;;;;;5070544;28;20086;-53
2023/09/29 12:02:13;;;;;;;3.70;1.08;;;27.50;95.40;;;;;;5070724;28;20044;-56
2023/09/29 12:04:39;;;;;;;4.75;1.08;;;25.90;94.60;;;;;;5070962;28;20104;-57
2023/09/29 12:07:05;;;;;;;5.57;1.40;;;26.50;95.80;;;;;;5071927;28;20488;-55
2023/09/29 12:09:30;;;;;;;2.72;1.00;;;28.70;97.40;;;;;;5072315;28;20042;-58
2023/09/29 12:12:00;;;;;;;4.28;1.13;;;;;;;;;;5072619;28;20021;-51
2023/09/29 12:14:26;;;;;;;3.72;1.17;;;26.30;97.40;;;;;;5072338;28;20033;-49
2023/09/29 12:16:53;;;;;;;3.20;0.80;;;25.00;95.60;;;;;;5072346;28;20020;-43
2023/09/29 12:19:22;;;;;;;3.47;0.80;;;26.90;97.80;;;;;;5072458;28;20060;-55
2023/09/29 12:21:47;;;;;;;3.75;1.10;;;27.50;95.70;;;;;;5072469;28;20111;-52
2023/09/29 12:24:14;;;;;;;3.28;1.02;;;;;;;;;;5072085;28;20484;-43
2023/09/29 12:26:46;;;;;;;2.55;1.00;;;;;;;;;;5072037;28;20361;-46
2023/09/29 12:29:12;;;;;;;2.10;0.90;;;24.50;96.00;;;;;;5071391;28;20020;-51
2023/09/29 12:31:38;;;;;;;2.78;0.95;;;25.80;96.90;;;;;;5065091;28;20017;-44
2023/09/29 12:34:04;;;;;;;4.13;0.95;;;24.50;96.80;;;;;;5067526;28;20036;-50
2023/09/29 12:36:30;;;;;;;3.30;1.00;;;;;;;;;;5062247;28;20477;-40
2023/09/29 12:38:55;;;;;;;5.60;1.15;;;24.10;95.80;;;;;;5059338;28;20124;-48
2023/09/29 12:41:22;;;;;;;3.30;0.85;;;25.10;98.20;;;;;;5061673;28;20183;-56
2023/09/29 12:43:47;;;;;;;4.55;1.05;;;21.00;95.90;;;;;;5060634;28;20040;-50
2023/09/29 12:46:13;;;;;;;4.32;1.17;;;;;;;;;;5057389;28;20032;-47
2023/09/29 12:48:39;;;;;;;2.33;0.85;;;23.70;96.60;;;;;;5068272;28;20020;-48
2023/09/29 12:51:05;;;;;;;4.40;0.90;;;;;;;;;;5065258;28;20031;-48
2023/09/29 12:53:31;;;;;;;2.38;0.95;;;25.10;96.70;;;;;;5067235;28;20119;-57
2023/09/29 12:55:58;;;;;;;3.03;1.00;;;;;;;;;;5064349;28;20066;-44
2023/09/29 12:58:23;;;;;;;2.38;0.80;;;24.80;99.00;;;;;;5067318;28;20025;-59
2023/09/29 13:00:50;;;;;;;2.75;1.10;;;23.70;96.90;;;;;;5065654;28;20052;-50
2023/09/29 13:03:16;;;;;;;2.92;0.98;;;;;;;;;;5066045;28;20577;-47
2023/09/29 13:05:42;;;;;;;2.83;0.82;;;24.40;98.50;;;;;;5060786;28;20112;-59
2023/09/29 13:08:10;;;;;;;3.90;0.82;;;;;;;;;;5058138;28;20381;-52
2023/09/29 13:10:37;;;;;;;5.93;1.50;;;24.40;98.30;;;;;;5063255;28;20033;-49
2023/09/29 13:13:03;;;;;;;5.40;1.17;;;24.40;98.00;;;;;;5067607;28;20028;-49
2023/09/29 13:15:31;;;;;;;5.40;1.20;;;24.00;96.40;;;;;;5070151;28;20067;-46
2023/09/29 13:17:57;;;;;;;2.17;1.23;;;23.50;97.10;;;;;;5069880;28;20049;-47